Sunday, April 22, 2018, 12:58 AM GMT
Back to Local

CYOY, Valcartier Airport

Location: , , Canada Lat: 46.9
Local Time: 12:58 AM GMT ( 0:58 GMT) Lon: -71.5
Time Zone: GMT Elev: 551 ft

Show me the last for .
Show Coded

Time T Td Feel RH Dir Speed Gust Alt SLP Vis Weather Sky Remarks
2018-04-22 00:00 43 18 39 35 330° 7 - 30.21 30.24 9 CLR None
2018-04-21 23:00 45 19 42 36 320° 5 - 30.19 30.21 9 BKN064 None
2018-04-21 22:00 45 19 37 36 330° 10 17 30.18 30.20 9 BKN070 BKN094 None
2018-04-21 21:00 46 18 40 31 320° 14 - 30.17 30.19 9 FEW070 BKN076 None
2018-04-21 20:00 45 19 38 36 330° 13 - 30.17 30.20 9 FEW058 SCT066 SCT094 None
2018-04-21 19:00 45 19 37 36 310° 14 20 30.18 30.20 9 FEW058 SCT064 BKN097 None
2018-04-21 18:00 45 19 37 36 320° 14 20 30.19 30.21 9 BKN056 BKN070 BKN093 None
2018-04-21 17:00 43 19 35 38 310° 18 - 30.20 30.22 9 FEW056 FEW067 None
2018-04-21 16:00 43 21 34 41 310° 14 22 30.20 30.22 9 SCT052 None
2018-04-21 15:00 41 21 31 44 340° 13 22 30.22 30.25 9 BKN050 BKN095 None
2018-04-21 14:00 39 21 30 48 360° 18 - 30.23 30.25 9 FEW079 None
2018-04-21 13:00 37 21 27 51 330° 12 18 30.23 30.26 9 CLR None
2018-04-21 12:00 37 21 30 51 320° 10 - 30.23 30.26 9 FEW082 None
2018-04-21 11:00 34 21 27 59 300° 8 - 30.23 30.25 9 SCT054 None
2018-04-21 10:00 30 21 27 68 320° 3 - 30.22 30.24 9 BKN057 None
2018-04-21 09:00 32 21 29 63 340° 3 - 30.21 30.23 9 FEW061 None
2018-04-21 08:00 27 21 23 79 270° 3 - 30.20 30.22 9 CLR None
2018-04-21 07:00 30 23 - 74 - Calm - 30.19 30.21 9 FEW068 None
2018-04-21 06:00 32 23 27 68 290° 5 - 30.18 30.21 9 FEW070 None
2018-04-21 05:00 36 23 30 59 340° 7 - 30.18 30.21 9 BKN065 None
2018-04-21 04:00 37 25 34 60 330° 5 - 30.18 30.20 9 BKN067 None
2018-04-21 03:00 37 25 33 60 320° 6 - 30.17 30.19 9 OVC088 None
2018-04-21 02:00 37 27 - 64 280° 2 - 30.16 30.19 9 FEW074 SCT099 None
2018-04-21 01:00 36 27 32 69 270° 5 - 30.17 30.19 9 FEW080 None

Support USWX by starting your Amazon purchase here.